CheckWX is a tool to help pilots better visualize weather data.  It is not intended as a substitute for an official pre-flight weather briefing.

07:10:57 UTC

ENVR METAR
Værøy Heliport
Værøy, Norway
Current

21 mins ago

ENVR 210650Z 36007KT CAVOK 10/07 Q1016
Observed
May-21 @ 06:50 UTC
Wind
  • 360° at 7 KTS
Visibility
10,000+ meters
Flight Rules
VFR
Cloud Levels
  • Clear skies
Temperature
10°C / 50°F
Dewpoint
C / 45°F
Humidity
82%
Altimeter
30" Hg
Pressure
1015.92 hPa
Previous

1 hour ago

ENVR 210550Z 01009KT CAVOK 09/07 Q1016
Observed
May-21 @ 05:50 UTC
Wind
  • 010° at 9 KTS
Visibility
10,000+ meters
Flight Rules
VFR
Cloud Levels
  • Clear skies
Temperature
C / 48°F
Dewpoint
C / 45°F
Humidity
87%
Altimeter
30" Hg
Pressure
1015.92 hPa
Previous

17 hours ago

ENVR 201350Z 07003KT CAVOK 11/08 Q1015
Observed
May-20 @ 13:50 UTC
Wind
  • 070° at 3 KTS
Visibility
10,000+ meters
Flight Rules
VFR
Cloud Levels
  • Clear skies
Temperature
11°C / 52°F
Dewpoint
C / 46°F
Humidity
82%
Altimeter
29.97" Hg
Pressure
1014.92 hPa